createdAt,value
2024-01-22T09:23:31.306Z,10.40
2024-01-22T09:25:57.978Z,10.50
2024-01-22T09:28:26.295Z,10.50
2024-01-22T09:30:53.004Z,10.60
2024-01-22T09:33:19.844Z,10.60
2024-01-22T09:35:46.636Z,10.70
2024-01-22T09:38:13.346Z,10.80
2024-01-22T09:40:42.553Z,10.80
2024-01-22T09:43:09.710Z,10.60
2024-01-22T09:45:36.495Z,10.60
2024-01-22T09:48:04.269Z,10.60
2024-01-22T09:50:31.323Z,10.60
2024-01-22T09:53:09.503Z,10.60
2024-01-22T09:55:40.606Z,10.70
2024-01-22T09:58:10.275Z,10.50
2024-01-22T10:00:39.443Z,10.60
2024-01-22T10:03:06.876Z,10.80
2024-01-22T10:05:33.718Z,10.80
2024-01-22T10:08:00.466Z,10.90
2024-01-22T10:10:27.967Z,11.10
2024-01-22T10:13:08.919Z,10.90
2024-01-22T10:15:36.604Z,10.80
2024-01-22T10:18:12.101Z,10.80
2024-01-22T10:20:40.238Z,10.80
2024-01-22T10:23:07.452Z,10.70
2024-01-22T10:25:34.449Z,10.80
2024-01-22T10:28:10.840Z,10.80
2024-01-22T10:30:39.454Z,10.80
2024-01-22T10:33:13.053Z,11.00
2024-01-22T10:35:40.326Z,11.00
2024-01-22T10:38:09.323Z,11.10
2024-01-22T10:40:36.348Z,11.30
2024-01-22T10:43:25.668Z,11.20
2024-01-22T10:45:53.502Z,11.00
2024-01-22T10:48:37.591Z,11.20
2024-01-22T10:51:11.073Z,11.30
2024-01-22T10:53:40.075Z,11.40
2024-01-22T10:56:15.607Z,11.60
2024-01-22T10:58:45.274Z,11.70
2024-01-22T11:01:20.910Z,11.80
2024-01-22T11:03:50.287Z,11.90
2024-01-22T11:06:22.058Z,12.10
2024-01-22T11:08:58.101Z,12.30
2024-01-22T11:11:29.615Z,12.70
2024-01-22T11:14:00.172Z,12.80
2024-01-22T11:16:27.278Z,12.60
2024-01-22T11:19:02.500Z,12.70
2024-01-22T11:21:35.066Z,12.40
2024-01-22T11:24:14.712Z,12.40
2024-01-22T11:26:47.692Z,12.40
2024-01-22T11:29:15.827Z,12.30
2024-01-22T11:31:42.991Z,12.20
2024-01-22T11:34:12.333Z,12.10
2024-01-22T11:36:54.710Z,11.90
2024-01-22T11:39:33.966Z,11.80
2024-01-22T11:42:21.970Z,11.70
2024-01-22T11:44:52.222Z,11.50
2024-01-22T11:47:21.241Z,11.50
2024-01-22T11:49:48.539Z,11.40
2024-01-22T11:52:18.819Z,11.40
2024-01-22T11:54:58.520Z,11.40
2024-01-22T11:57:28.190Z,11.50
2024-01-22T12:00:02.656Z,11.50
2024-01-22T12:02:29.432Z,11.60
2024-01-22T12:05:08.075Z,11.60
2024-01-22T12:07:42.480Z,11.60
2024-01-22T12:10:20.333Z,11.50
2024-01-22T12:12:50.556Z,11.50
2024-01-22T12:15:17.369Z,11.50
2024-01-22T12:17:45.138Z,11.50
2024-01-22T12:20:13.694Z,11.50
2024-01-22T12:22:41.446Z,11.30
2024-01-22T12:25:09.838Z,11.20
2024-01-22T12:27:37.481Z,11.10
2024-01-22T12:30:15.906Z,10.80
2024-01-22T12:32:53.792Z,10.80
2024-01-22T12:35:24.540Z,10.70
2024-01-22T12:37:52.504Z,10.80
2024-01-22T12:40:20.261Z,10.80
2024-01-22T12:42:59.232Z,10.80
2024-01-22T12:45:26.290Z,10.90
2024-01-22T12:47:53.708Z,10.80
2024-01-22T12:50:20.586Z,10.90
2024-01-22T12:52:47.825Z,10.90
2024-01-22T12:55:16.185Z,11.00
2024-01-22T12:57:45.518Z,11.10
2024-01-22T13:00:14.250Z,11.00
2024-01-22T13:02:44.617Z,11.10
2024-01-22T13:05:11.477Z,11.20
2024-01-22T13:07:38.975Z,11.10
2024-01-22T13:10:06.223Z,11.20
2024-01-22T13:12:32.966Z,11.20
2024-01-22T13:14:59.857Z,11.20
2024-01-22T13:17:26.702Z,11.10
2024-01-22T13:19:54.342Z,11.20
2024-01-22T13:22:23.082Z,11.10
2024-01-22T13:24:50.275Z,11.00
2024-01-22T13:27:18.493Z,11.10
2024-01-22T13:29:45.400Z,11.00
2024-01-22T13:32:12.487Z,11.00
2024-01-22T13:34:40.012Z,10.90
2024-01-22T13:37:06.890Z,10.90
2024-01-22T13:39:34.172Z,11.10
2024-01-22T13:42:00.964Z,11.10
2024-01-22T13:44:27.723Z,11.10
2024-01-22T13:46:54.468Z,11.00
2024-01-22T13:49:21.301Z,10.90
2024-01-22T13:51:48.030Z,10.70
2024-01-22T13:54:14.905Z,10.60
2024-01-22T13:56:41.532Z,10.70
2024-01-22T13:59:09.121Z,10.70
2024-01-22T14:01:35.966Z,10.80
2024-01-22T14:04:02.727Z,10.80
2024-01-22T14:06:29.527Z,10.70
2024-01-22T14:08:57.018Z,10.80
2024-01-22T14:11:23.773Z,10.90
2024-01-22T14:13:50.660Z,10.90
2024-01-22T14:16:18.306Z,10.80
2024-01-22T14:18:45.755Z,10.80
2024-01-22T14:21:12.767Z,10.80
2024-01-22T14:23:39.550Z,10.80
2024-01-22T14:26:08.751Z,10.80
2024-01-22T14:28:35.667Z,10.70
2024-01-22T14:31:03.289Z,10.70
2024-01-22T14:33:30.453Z,10.70
2024-01-22T14:35:57.573Z,10.60
2024-01-22T14:38:31.341Z,10.60
2024-01-22T14:41:01.283Z,10.70
2024-01-22T14:43:31.845Z,10.70
2024-01-22T14:45:58.579Z,10.70
2024-01-22T14:48:26.822Z,10.70
2024-01-22T14:50:53.886Z,10.70
2024-01-22T14:53:21.546Z,10.70
2024-01-22T14:55:48.419Z,10.80
2024-01-22T14:58:15.117Z,10.80
2024-01-22T15:00:41.916Z,10.70
2024-01-22T15:03:08.645Z,10.60
2024-01-22T15:05:35.898Z,10.60
2024-01-22T15:08:02.809Z,10.50
2024-01-22T15:10:33.395Z,10.50
2024-01-22T15:13:02.878Z,10.50
2024-01-22T15:15:31.145Z,10.50
2024-01-22T15:17:58.236Z,10.50
2024-01-22T15:20:25.558Z,10.40
2024-01-22T15:22:52.798Z,10.40
2024-01-22T15:25:19.729Z,10.30
2024-01-22T15:27:48.107Z,10.20
2024-01-22T15:30:15.569Z,10.10
2024-01-22T15:32:42.440Z,10.00
2024-01-22T15:35:09.855Z,9.90
2024-01-22T15:37:37.520Z,9.70
2024-01-22T15:40:05.141Z,9.80
2024-01-22T15:42:31.940Z,9.70
2024-01-22T15:44:58.970Z,9.70
2024-01-22T15:47:25.818Z,9.70
2024-01-22T15:49:52.645Z,9.70
2024-01-22T15:52:19.375Z,9.70
2024-01-22T15:54:46.065Z,9.80
2024-01-22T15:57:13.387Z,9.70
2024-01-22T15:59:40.057Z,9.70
2024-01-22T16:02:07.055Z,9.70
2024-01-22T16:04:35.159Z,9.60
2024-01-22T16:07:10.351Z,9.50
2024-01-22T16:09:43.085Z,9.50
2024-01-22T16:12:10.937Z,9.50
2024-01-22T16:14:38.377Z,9.50
2024-01-22T16:17:05.825Z,9.50
2024-01-22T16:19:34.833Z,9.40
2024-01-22T16:22:01.966Z,9.30
2024-01-22T16:24:29.102Z,9.20
2024-01-22T16:26:55.974Z,9.20
2024-01-22T16:29:22.807Z,9.10
2024-01-22T16:31:49.819Z,9.10
2024-01-22T16:34:16.629Z,9.10
2024-01-22T16:36:44.714Z,9.10
2024-01-22T16:39:13.759Z,8.90
2024-01-22T16:41:41.229Z,8.90
2024-01-22T16:44:07.955Z,8.80
2024-01-22T16:46:40.104Z,8.80
2024-01-22T16:49:08.008Z,8.80
2024-01-22T16:51:34.714Z,8.80
2024-01-22T16:54:01.589Z,8.80
2024-01-22T16:56:31.425Z,8.80
2024-01-22T16:58:58.869Z,8.60
